Time;durP1;ratioP1;P1;durP2;ratioP2;P2;SDS_P1;SDS_P2;PMS_P1;PMS_P2;Temp;Humidity;BMP_temperature;BMP_pressure;BME280_temperature;BME280_humidity;BME280_pressure;Samples;Min_cycle;Max_cycle;Signal;HPM_P1;HPM_P2
2022/03/22 00:00:51;;;;;;;57.67;31.63;;;;;;;10.82;38.60;103159.72;5078715;28;20404;-73
2022/03/22 00:03:17;;;;;;;51.45;30.08;;;;;;;10.89;38.30;103167.84;5083027;28;20032;-72
2022/03/22 00:05:44;;;;;;;55.50;30.17;;;;;;;10.78;38.13;103161.19;5063563;28;20503;-71
2022/03/22 00:08:11;;;;;;;59.53;32.10;;;;;;;10.73;38.65;103158.25;5082480;28;20036;-73
2022/03/22 00:10:37;;;;;;;50.20;31.42;;;;;;;10.67;38.58;103159.91;5077435;28;20037;-72
2022/03/22 00:13:05;;;;;;;50.10;30.08;;;;;;;10.71;38.67;103163.03;5072023;28;20055;-71
2022/03/22 00:15:31;;;;;;;54.60;30.75;;;;;;;10.69;39.17;103163.25;5072096;28;20500;-72
2022/03/22 00:17:57;;;;;;;54.03;32.75;;;;;;;10.74;39.29;103159.94;5072143;28;20029;-71
2022/03/22 00:20:23;;;;;;;55.65;30.13;;;;;;;10.62;39.70;103157.00;5054991;28;20401;-73
2022/03/22 00:22:49;;;;;;;52.58;30.45;;;;;;;10.57;39.68;103162.22;5072082;28;20124;-71
2022/03/22 00:25:16;;;;;;;50.28;31.13;;;;;;;10.46;38.72;103165.53;5076333;28;20079;-73
2022/03/22 00:27:55;;;;;;;60.25;32.00;;;;;;;10.39;39.63;103156.53;5073943;28;20140;-73
2022/03/22 00:30:29;;;;;;;51.40;30.88;;;;;;;10.39;39.66;103158.41;5072222;28;20029;-72
2022/03/22 00:32:56;;;;;;;50.70;31.67;;;;;;;10.36;40.29;103153.38;5072017;28;20048;-72
2022/03/22 00:35:24;;;;;;;56.70;32.67;;;;;;;10.28;39.39;103162.56;5072812;28;20109;-73
2022/03/22 00:37:53;;;;;;;56.55;32.42;;;;;;;10.25;39.47;103157.56;5071927;28;20035;-72
2022/03/22 00:40:22;;;;;;;58.72;32.88;;;;;;;10.22;40.06;103157.97;5071803;28;20509;-72
2022/03/22 00:42:49;;;;;;;61.35;33.83;;;;;;;10.16;40.11;103153.38;5071699;28;20032;-72
2022/03/22 00:45:16;;;;;;;51.97;32.13;;;;;;;10.14;39.26;103163.59;5071729;28;20587;-73
2022/03/22 00:47:46;;;;;;;56.25;33.50;;;;;;;10.12;40.40;103162.09;5071812;28;20112;-71
2022/03/22 00:50:13;;;;;;;60.22;33.47;;;;;;;10.04;40.10;103163.13;5072396;28;20046;-71
2022/03/22 00:52:38;;;;;;;56.38;33.17;;;;;;;10.04;40.48;103159.63;5052612;28;20085;-72
2022/03/22 00:55:05;;;;;;;64.65;34.63;;;;;;;10.11;41.63;103158.59;5033573;28;20048;-72
2022/03/22 00:57:33;;;;;;;58.38;33.10;;;;;;;10.11;40.79;103158.59;5078560;28;20036;-73
2022/03/22 01:00:03;;;;;;;59.00;34.85;;;;;;;10.14;40.67;103157.31;5072232;28;20123;-71
2022/03/22 01:02:29;;;;;;;62.13;34.03;;;;;;;10.17;41.09;103159.63;5071801;28;20078;-73
2022/03/22 01:04:56;;;;;;;61.67;35.67;;;;;;;10.14;41.44;103154.59;5071332;28;20028;-72
2022/03/22 01:07:22;;;;;;;58.75;34.08;;;;;;;10.17;40.99;103156.91;5071397;28;20169;-71
2022/03/22 01:09:47;;;;;;;58.83;34.42;;;;;;;10.21;40.47;103155.47;5070988;28;20110;-72
2022/03/22 01:12:13;;;;;;;55.17;33.53;;;;;;;10.27;40.60;103155.50;5070999;28;20029;-73
2022/03/22 01:14:38;;;;;;;53.92;31.63;;;;;;;10.33;40.70;103160.06;5071096;28;20623;-71
2022/03/22 01:17:06;;;;;;;58.58;33.05;;;;;;;10.30;40.80;103162.34;5072004;28;20029;-72
2022/03/22 01:19:32;;;;;;;52.20;32.50;;;;;;;10.28;40.43;103164.44;5071459;28;20497;-72
2022/03/22 01:21:58;;;;;;;58.40;33.25;;;;;;;10.23;40.88;103156.09;5071215;28;20090;-73
2022/03/22 01:24:24;;;;;;;51.63;33.13;;;;;;;10.30;41.33;103155.06;5070932;28;20395;-73
2022/03/22 01:26:49;;;;;;;61.97;33.47;;;;;;;10.23;41.40;103150.66;5073800;28;20079;-71
2022/03/22 01:29:15;;;;;;;63.70;34.80;;;;;;;10.28;40.95;103151.72;5071380;28;20033;-72
2022/03/22 01:31:40;;;;;;;59.30;34.47;;;;;;;10.26;41.16;103152.97;5081203;28;20036;-71
2022/03/22 01:34:06;;;;;;;65.95;36.05;;;;;;;10.14;42.26;103155.44;5090363;28;20517;-73
2022/03/22 01:36:31;;;;;;;61.45;35.90;;;;;;;10.02;42.07;103153.56;5091085;28;20033;-72
2022/03/22 01:38:58;;;;;;;57.80;34.70;;;;;;;10.21;41.89;103153.59;5091062;28;20024;-72
2022/03/22 01:41:24;;;;;;;54.50;34.63;;;;;;;10.31;41.38;103140.44;5091549;28;20036;-73
2022/03/22 01:43:49;;;;;;;50.85;32.00;;;;;;;10.34;41.19;103150.06;5090731;28;20093;-73
2022/03/22 01:46:16;;;;;;;60.33;34.35;;;;;;;10.42;40.08;103147.13;5072747;28;20036;-72
2022/03/22 01:48:42;;;;;;;55.30;35.38;;;;;;;10.43;39.90;103146.13;5090977;28;20032;-72
2022/03/22 01:51:09;;;;;;;69.97;34.80;;;;;;;10.40;40.61;103147.34;5081550;28;20035;-72
2022/03/22 01:53:36;;;;;;;56.30;32.75;;;;;;;10.42;40.03;103141.72;5071473;28;20405;-72
2022/03/22 01:56:03;;;;;;;59.72;32.72;;;;;;;10.35;40.15;103138.16;5091353;28;20074;-72
2022/03/22 01:58:28;;;;;;;54.90;32.40;;;;;;;10.33;40.81;103143.78;5083436;28;20409;-72
2022/03/22 02:05:51;;;;;;;59.03;33.58;;;;;;;10.33;40.53;103143.78;5070475;28;20029;-71
2022/03/22 02:06:33;;;;;;;55.75;33.30;;;;;;;10.24;40.96;103142.31;5070781;28;20577;-71
2022/03/22 02:08:59;;;;;;;56.60;32.50;;;;;;;10.14;40.52;103139.16;5070288;28;20028;-72
2022/03/22 02:11:25;;;;;;;61.50;34.53;;;;;;;10.10;41.29;103139.78;5070460;28;20041;-72
2022/03/22 02:13:50;;;;;;;56.10;33.92;;;;;;;10.01;40.83;103141.88;5070006;28;20257;-73
2022/03/22 02:16:16;;;;;;;56.40;33.97;;;;;;;9.96;41.12;103129.97;5070063;28;20502;-73
2022/03/22 02:18:42;;;;;;;60.15;32.22;;;;;;;9.89;41.11;103134.50;5070054;28;20395;-71
2022/03/22 02:21:09;;;;;;;56.95;32.63;;;;;;;9.86;41.37;103132.22;5069905;28;20029;-72
2022/03/22 02:23:56;;;;;;;61.38;35.05;;;;;;;9.78;40.68;103134.06;5069701;28;20174;-73
2022/03/22 02:26:24;;;;;;;59.55;32.75;;;;;;;9.74;40.72;103131.97;5076716;28;20076;-72
2022/03/22 02:28:53;;;;;;;59.28;34.45;;;;;;;9.72;41.09;103134.06;5069562;28;20040;-73
2022/03/22 02:31:26;;;;;;;57.20;32.45;;;;;;;9.61;40.38;103121.06;5069779;28;20036;-72
2022/03/22 02:33:53;;;;;;;56.40;34.60;;;;;;;9.55;41.28;103125.44;5069944;28;20545;-73
2022/03/22 02:36:18;;;;;;;50.92;32.80;;;;;;;9.54;41.74;103125.66;5070384;28;20405;-73
2022/03/22 02:38:44;;;;;;;59.53;33.90;;;;;;;9.53;41.35;103127.50;5069976;28;20032;-72
2022/03/22 02:41:28;;;;;;;58.55;34.90;;;;;;;9.51;41.91;103126.88;5070500;28;20173;-73
2022/03/22 02:43:54;;;;;;;65.45;34.78;;;;;;;9.49;41.71;103126.25;5069806;28;20040;-73
2022/03/22 02:46:20;;;;;;;68.38;37.05;;;;;;;9.47;41.77;103119.34;5071639;28;20494;-73
2022/03/22 02:48:46;;;;;;;62.08;34.45;;;;;;;9.48;42.18;103129.16;5073593;28;20029;-73
2022/03/22 02:51:13;;;;;;;68.63;34.22;;;;;;;9.45;41.93;103124.16;5073312;28;20039;-73
2022/03/22 02:53:39;;;;;;;53.50;32.17;;;;;;;9.41;41.72;103137.22;5055520;28;20071;-71
2022/03/22 02:56:05;;;;;;;59.15;34.25;;;;;;;9.40;40.94;103134.72;5074093;28;20122;-73
2022/03/22 02:58:33;;;;;;;63.92;33.58;;;;;;;9.40;41.04;103130.16;5080940;28;20032;-71
2022/03/22 03:00:58;;;;;;;63.63;33.75;;;;;;;9.40;41.96;103132.84;5093453;28;20532;-72
2022/03/22 03:03:24;;;;;;;57.50;34.15;;;;;;;9.36;42.16;103134.28;5093722;28;20024;-72
2022/03/22 03:05:50;;;;;;;56.28;33.08;;;;;;;9.31;41.91;103134.03;5093680;28;20058;-72
2022/03/22 03:08:16;;;;;;;60.25;34.92;;;;;;;9.28;41.60;103139.88;5094037;28;20032;-74
2022/03/22 03:10:42;;;;;;;57.72;34.70;;;;;;;9.25;41.44;103136.72;5094019;28;20063;-73
2022/03/22 03:13:08;;;;;;;60.35;34.60;;;;;;;9.30;41.86;103128.81;5093339;28;20032;-74
2022/03/22 03:15:34;;;;;;;59.33;34.70;;;;;;;9.28;41.75;103141.75;5093511;28;20500;-73
2022/03/22 03:18:00;;;;;;;60.03;32.65;;;;;;;9.28;41.57;103144.44;5093719;28;20464;-71
2022/03/22 03:20:25;;;;;;;54.28;32.70;;;;;;;9.19;41.38;103141.09;5094085;28;20396;-74
2022/03/22 03:22:51;;;;;;;54.78;30.52;;;;;;;9.12;42.41;103144.75;5093571;28;20040;-72
2022/03/22 03:25:18;;;;;;;50.05;29.73;;;;;;;9.12;42.57;103145.59;5093154;28;20515;-72
2022/03/22 03:27:44;;;;;;;60.72;32.47;;;;;;;9.16;43.00;103146.88;5074783;28;20074;-73
2022/03/22 03:30:10;;;;;;;55.00;31.63;;;;;;;9.07;43.15;103145.38;5073055;28;20036;-72
2022/03/22 03:32:36;;;;;;;54.28;31.23;;;;;;;9.06;41.68;103149.09;5064893;28;20108;-73
2022/03/22 03:35:02;;;;;;;56.35;31.73;;;;;;;9.02;42.53;103142.41;5073292;28;20036;-74
2022/03/22 03:37:34;;;;;;;61.95;33.03;;;;;;;8.99;41.93;103142.81;5072913;28;20033;-72
2022/03/22 03:40:00;;;;;;;61.35;32.67;;;;;;;9.00;42.30;103149.91;5072913;28;20060;-73
2022/03/22 03:42:25;;;;;;;54.60;31.08;;;;;;;8.98;42.51;103154.66;5072890;28;20024;-72
2022/03/22 03:47:35;;;;;;;57.80;31.33;;;;;;;8.98;41.02;103143.84;5072996;28;20110;-72
2022/03/22 03:50:05;;;;;;;61.33;32.38;;;;;;;8.91;42.35;103156.50;5073552;28;20485;-74
2022/03/22 03:52:33;;;;;;;47.65;30.60;;;;;;;8.97;42.24;103153.00;5055423;28;20033;-73
2022/03/22 03:55:00;;;;;;;51.15;30.50;;;;;;;8.98;42.34;103154.66;5081791;28;20524;-73
2022/03/22 03:57:27;;;;;;;51.28;30.02;;;;;;;8.98;41.22;103157.38;5091747;28;20028;-74
2022/03/22 03:59:54;;;;;;;54.13;31.00;;;;;;;8.95;41.77;103153.22;5092368;28;20032;-74
2022/03/22 04:02:21;;;;;;;55.53;30.92;;;;;;;8.89;41.23;103155.88;5093559;28;20488;-73
2022/03/22 04:04:53;;;;;;;67.10;34.55;;;;;;;8.87;41.79;103157.94;5092548;28;20032;-73
2022/03/22 04:07:22;;;;;;;55.03;32.47;;;;;;;8.86;41.96;103158.94;5092593;28;20032;-73
2022/03/22 04:09:47;;;;;;;58.67;32.70;;;;;;;8.88;41.82;103159.59;5092490;28;20036;-73
2022/03/22 04:12:13;;;;;;;59.53;33.78;;;;;;;8.76;42.55;103156.59;5092332;28;20564;-73
2022/03/22 04:14:38;;;;;;;61.60;33.28;;;;;;;8.68;42.90;103148.63;5092077;28;20135;-73
2022/03/22 04:17:08;;;;;;;58.72;33.10;;;;;;;8.75;42.16;103154.09;5092744;28;20500;-73
2022/03/22 04:19:35;;;;;;;64.15;33.75;;;;;;;8.74;42.29;103161.38;5092325;28;20090;-73
2022/03/22 04:22:02;;;;;;;60.45;35.42;;;;;;;8.74;42.56;103165.97;5092401;28;20107;-73
2022/03/22 04:24:28;;;;;;;55.50;33.30;;;;;;;8.77;41.93;103161.00;5092273;28;20098;-74
2022/03/22 04:26:54;;;;;;;54.90;33.75;;;;;;;8.74;42.47;103165.97;5080404;28;20044;-74
2022/03/22 04:34:48;;;;;;;63.90;33.15;;;;;;;8.63;42.22;103170.03;5071758;28;20142;-73
2022/03/22 04:37:15;;;;;;;56.17;33.45;;;;;;;8.66;42.55;103163.41;5053733;28;20059;-73
2022/03/22 04:39:45;;;;;;;56.63;33.17;;;;;;;8.70;42.72;103168.19;5071678;28;20602;-73
2022/03/22 04:42:11;;;;;;;62.20;35.42;;;;;;;8.71;42.56;103172.59;5071554;28;20029;-74
2022/03/22 04:44:37;;;;;;;62.55;34.30;;;;;;;8.77;42.14;103169.09;5071415;28;20028;-73
2022/03/22 04:47:03;;;;;;;61.10;35.47;;;;;;;8.74;41.70;103174.09;5071878;28;20103;-73
2022/03/22 04:49:30;;;;;;;62.70;35.35;;;;;;;8.78;41.75;103172.66;5071875;28;20612;-73
2022/03/22 04:57:25;;;;;;;67.88;36.95;;;;;;;9.12;41.58;103179.97;5071524;28;20051;-73
2022/03/22 04:59:50;;;;;;;57.95;34.35;;;;;;;9.34;41.54;103178.88;5071043;28;20032;-73
2022/03/22 05:02:16;;;;;;;63.03;35.40;;;;;;;9.52;41.35;103180.06;5058662;28;20025;-72
2022/03/22 05:04:42;;;;;;;64.20;37.78;;;;;;;9.74;41.15;103173.47;5051093;28;20402;-73
2022/03/22 05:07:08;;;;;;;62.42;35.53;;;;;;;9.77;41.12;103169.53;5051159;28;20152;-73
2022/03/22 05:09:34;;;;;;;61.30;36.00;;;;;;;9.68;40.92;103173.47;5051022;28;20207;-72
2022/03/22 05:12:01;;;;;;;62.88;36.92;;;;;;;9.60;41.59;103187.19;5050971;28;20047;-73
2022/03/22 05:14:26;;;;;;;56.90;34.63;;;;;;;9.64;41.27;103177.59;5051530;28;20021;-75
2022/03/22 05:16:58;;;;;;;68.00;36.13;;;;;;;9.78;40.94;103182.88;5066527;28;20040;-73
2022/03/22 05:19:26;;;;;;;62.00;37.17;;;;;;;9.73;40.70;103187.22;5070817;28;20086;-73
2022/03/22 05:21:52;;;;;;;60.33;35.08;;;;;;;9.70;40.72;103185.75;5071098;28;20449;-73
2022/03/22 05:24:18;;;;;;;62.65;35.70;;;;;;;9.63;40.95;103184.91;5070982;28;20039;-73
2022/03/22 05:26:45;;;;;;;56.42;35.40;;;;;;;9.62;41.03;103185.09;5077270;28;20048;-74
2022/03/22 05:29:11;;;;;;;58.75;35.70;;;;;;;9.66;40.48;103184.47;5072557;28;20030;-73
2022/03/22 05:31:37;;;;;;;61.85;35.13;;;;;;;9.60;41.34;103195.31;5091193;28;20490;-73
2022/03/22 05:34:03;;;;;;;60.90;35.60;;;;;;;9.52;41.47;103201.75;5090709;28;20054;-73
2022/03/22 05:36:28;;;;;;;55.45;33.90;;;;;;;9.38;41.91;103196.41;5091182;28;20450;-74
2022/03/22 05:38:54;;;;;;;60.65;36.30;;;;;;;9.35;41.78;103204.94;5090632;28;20036;-73
2022/03/22 05:41:20;;;;;;;63.50;34.50;;;;;;;9.33;41.29;103207.00;5091403;28;20107;-74
2022/03/22 05:43:46;;;;;;;59.53;33.88;;;;;;;9.31;41.80;103204.47;5090586;28;20044;-73
2022/03/22 05:46:12;;;;;;;60.35;34.38;;;;;;;9.26;41.69;103206.97;5090415;28;20524;-73
2022/03/22 05:48:38;;;;;;;65.85;34.97;;;;;;;9.04;42.27;103207.19;5090519;28;20036;-73
2022/03/22 05:51:05;;;;;;;56.80;34.25;;;;;;;9.03;41.71;103208.25;5090411;28;20305;-73
2022/03/22 05:53:30;;;;;;;70.57;36.05;;;;;;;9.03;41.50;103202.84;5091231;28;20039;-74
2022/03/22 05:55:56;;;;;;;62.17;35.38;;;;;;;9.19;41.33;103202.53;5090405;28;20375;-73
2022/03/22 05:58:22;;;;;;;59.17;34.78;;;;;;;9.10;41.93;103209.97;5090495;28;20059;-74
2022/03/22 06:00:47;;;;;;;58.85;34.28;;;;;;;9.32;41.33;103208.88;5090176;28;20040;-73
2022/03/22 06:03:13;;;;;;;66.82;37.90;;;;;;;9.52;41.02;103206.31;5090403;28;20070;-72
2022/03/22 06:05:39;;;;;;;71.30;36.55;;;;;;;9.56;40.90;103213.84;5089999;28;20031;-73
2022/03/22 06:08:05;;;;;;;61.90;34.92;;;;;;;9.85;40.69;103207.31;5090914;28;20023;-72
2022/03/22 06:10:30;;;;;;;61.97;35.90;;;;;;;9.85;40.81;103220.88;5095191;28;20070;-76
2022/03/22 06:12:57;;;;;;;52.53;35.70;;;;;;;9.41;42.09;103223.94;5097628;28;20035;-72
2022/03/22 06:15:28;;;;;;;68.40;36.35;;;;;;;9.58;41.97;103219.91;5091052;28;20093;-74
2022/03/22 06:17:57;;;;;;;58.17;35.13;;;;;;;9.83;41.64;103221.06;5105302;28;20035;-72
2022/03/22 06:20:26;;;;;;;61.03;35.45;;;;;;;9.63;41.76;103225.56;5102161;28;20028;-74
2022/03/22 06:22:54;;;;;;;62.85;35.97;;;;;;;9.66;41.90;103229.75;5106855;28;20028;-74
2022/03/22 06:25:20;;;;;;;58.83;33.17;;;;;;;10.08;40.53;103224.06;5078316;28;20410;-74
2022/03/22 06:27:48;;;;;;;61.58;34.92;;;;;;;10.30;40.19;103222.91;5079789;28;20056;-74
2022/03/22 06:30:15;;;;;;;63.15;35.15;;;;;;;10.20;40.26;103225.16;5080665;28;20047;-73
2022/03/22 06:32:45;;;;;;;53.75;33.05;;;;;;;10.29;40.30;103231.25;5073203;28;20032;-72
2022/03/22 06:35:11;;;;;;;54.95;34.05;;;;;;;10.31;40.50;103231.88;5077669;28;20034;-75
2022/03/22 06:37:38;;;;;;;57.40;34.88;;;;;;;10.51;39.81;103232.81;5086887;28;20136;-75
2022/03/22 06:40:06;;;;;;;60.85;35.70;;;;;;;10.33;40.12;103241.47;5088763;28;20028;-73
2022/03/22 06:42:32;;;;;;;52.42;32.38;;;;;;;10.54;39.63;103240.53;5078952;28;20029;-74
2022/03/22 06:44:58;;;;;;;59.08;32.95;;;;;;;10.40;40.34;103242.34;5077474;28;20111;-73
2022/03/22 06:47:23;;;;;;;55.70;34.28;;;;;;;10.63;39.54;103236.56;5078109;28;20028;-74
2022/03/22 06:49:49;;;;;;;53.25;32.47;;;;;;;10.68;39.51;103244.94;5077217;28;20036;-73
2022/03/22 06:52:14;;;;;;;58.25;32.38;;;;;;;10.62;39.71;103238.47;5052743;28;20045;-72
2022/03/22 06:54:40;;;;;;;54.25;31.20;;;;;;;10.65;39.63;103243.47;5072829;28;20107;-72
2022/03/22 06:57:06;;;;;;;59.13;32.92;;;;;;;10.82;39.21;103254.78;5086534;28;20032;-73
2022/03/22 06:59:34;;;;;;;60.17;32.97;;;;;;;10.90;39.01;103251.84;5053936;28;20047;-73
2022/03/22 07:01:59;;;;;;;50.67;32.40;;;;;;;11.07;38.62;103252.25;5081278;28;20043;-73
2022/03/22 07:04:25;;;;;;;59.13;31.52;;;;;;;10.77;39.36;103251.81;5083145;28;20028;-73
2022/03/22 07:06:50;;;;;;;54.85;30.45;;;;;;;11.23;38.43;103249.97;5079972;28;20033;-75
2022/03/22 07:09:16;;;;;;;54.65;31.80;;;;;;;11.29;38.32;103254.56;5078671;28;20055;-72
2022/03/22 07:11:49;;;;;;;60.30;32.10;;;;;;;11.37;38.30;103257.06;5083744;28;20050;-73
2022/03/22 07:14:17;;;;;;;54.50;31.45;;;;;;;11.52;37.91;103251.41;5090152;28;20082;-74
2022/03/22 07:16:42;;;;;;;55.40;31.90;;;;;;;11.27;38.05;103253.09;5089945;28;20035;-72
2022/03/22 07:19:08;;;;;;;53.33;31.50;;;;;;;11.27;38.45;103253.94;5090401;28;20028;-73
2022/03/22 07:21:33;;;;;;;57.30;30.67;;;;;;;11.32;37.98;103254.13;5089671;28;20040;-74
2022/03/22 07:23:59;;;;;;;48.75;30.73;;;;;;;11.57;37.60;103254.34;5089642;28;20047;-72
2022/03/22 07:26:25;;;;;;;48.13;28.98;;;;;;;11.65;37.47;103255.97;5082816;28;20036;-73
2022/03/22 07:28:50;;;;;;;45.20;29.42;;;;;;;11.74;36.99;103260.13;5070182;28;20086;-74
2022/03/22 07:31:15;;;;;;;48.10;30.08;;;;;;;11.87;36.81;103255.47;5078340;28;20037;-75
2022/03/22 07:33:41;;;;;;;42.38;29.15;;;;;;;11.86;36.67;103251.09;5071300;28;20040;-73
2022/03/22 07:36:06;;;;;;;52.00;30.45;;;;;;;11.91;36.63;103264.03;5072676;28;20115;-74
2022/03/22 07:38:32;;;;;;;47.25;29.00;;;;;;;11.84;36.66;103264.09;5073478;28;20031;-72
2022/03/22 07:40:57;;;;;;;41.40;27.08;;;;;;;12.13;36.04;103260.81;5083540;28;20043;-73
2022/03/22 07:43:23;;;;;;;44.03;28.83;;;;;;;11.80;36.93;103262.00;5081329;28;20036;-74
2022/03/22 07:45:49;;;;;;;47.25;28.85;;;;;;;12.12;35.66;103261.84;5082607;28;20040;-74
2022/03/22 07:48:14;;;;;;;44.70;28.38;;;;;;;12.08;36.08;103268.78;5061717;28;20512;-73
2022/03/22 07:53:24;;;;;;;43.85;27.95;;;;;;;12.31;35.76;103271.00;5082351;28;20345;-73
2022/03/22 07:55:49;;;;;;;43.47;28.70;;;;;;;12.58;35.13;103263.53;5080951;28;20040;-74
2022/03/22 07:58:15;;;;;;;43.88;27.42;;;;;;;12.66;35.36;103268.72;5081505;28;20036;-71
2022/03/22 08:00:41;;;;;;;47.47;28.80;;;;;;;12.81;34.61;103259.16;5083143;28;20516;-73
2022/03/22 08:03:10;;;;;;;45.45;27.92;;;;;;;12.89;34.42;103268.94;5081715;28;20459;-74
2022/03/22 08:05:37;;;;;;;44.05;28.30;;;;;;;12.94;34.56;103277.31;5081703;28;20086;-72
2022/03/22 08:08:04;;;;;;;38.42;24.92;;;;;;;13.02;35.01;103277.88;5083456;28;20016;-74
2022/03/22 08:10:31;;;;;;;49.42;26.33;;;;;;;13.00;34.43;103276.44;5080228;28;20071;-73
2022/03/22 08:12:58;;;;;;;47.95;25.73;;;;;;;13.20;34.43;103280.66;5072091;28;20045;-74
2022/03/22 08:15:24;;;;;;;43.25;26.77;;;;;;;13.42;33.58;103281.09;5071964;28;20036;-72
2022/03/22 08:17:49;;;;;;;42.72;25.48;;;;;;;13.40;33.77;103283.22;5072279;28;20035;-74
2022/03/22 08:20:15;;;;;;;40.90;25.95;;;;;;;13.53;33.79;103279.53;5072510;28;20029;-73
2022/03/22 08:22:51;;;;;;;45.10;26.88;;;;;;;13.72;33.78;103283.94;5072211;28;20127;-72
2022/03/22 08:25:21;;;;;;;38.97;25.52;;;;;;;13.51;33.66;103282.50;5076659;28;20536;-73
2022/03/22 08:27:47;;;;;;;40.10;25.05;;;;;;;13.70;33.51;103281.47;5095438;28;20046;-75
2022/03/22 08:30:12;;;;;;;42.67;25.33;;;;;;;13.79;33.59;103290.19;5092123;28;20040;-72
2022/03/22 08:32:40;;;;;;;40.67;25.55;;;;;;;13.68;33.05;103282.72;5091988;28;20031;-73
2022/03/22 08:35:06;;;;;;;39.33;25.08;;;;;;;13.71;32.79;103291.31;5092723;28;20036;-73
2022/03/22 08:37:31;;;;;;;40.40;24.38;;;;;;;14.22;32.69;103287.38;5091942;28;20051;-73
2022/03/22 08:39:57;;;;;;;39.13;25.90;;;;;;;14.30;32.95;103293.38;5092103;28;20102;-73
2022/03/22 08:42:22;;;;;;;46.20;27.17;;;;;;;14.37;32.91;103287.81;5094582;28;20100;-74
2022/03/22 08:44:48;;;;;;;37.47;23.88;;;;;;;14.49;32.48;103285.97;5091494;28;20069;-73
2022/03/22 08:47:13;;;;;;;40.95;24.85;;;;;;;13.99;33.08;103283.41;5091785;28;20031;-73
2022/03/22 08:49:40;;;;;;;42.83;26.45;;;;;;;14.67;32.07;103283.19;5091876;28;20028;-74
2022/03/22 08:52:06;;;;;;;37.65;25.55;;;;;;;14.91;31.45;103283.00;5106346;28;20111;-73
2022/03/22 08:54:32;;;;;;;41.70;25.25;;;;;;;14.67;31.27;103284.03;5101700;28;20145;-74
2022/03/22 08:56:57;;;;;;;37.83;25.23;;;;;;;14.64;32.15;103283.63;5097361;28;20043;-74
2022/03/22 08:59:23;;;;;;;37.65;24.25;;;;;;;15.21;31.40;103277.47;5092474;28;20443;-74
2022/03/22 09:01:48;;;;;;;40.78;23.95;;;;;;;15.05;31.73;103280.09;5099302;28;20042;-73
2022/03/22 09:06:58;;;;;;;37.55;24.65;;;;;;;14.90;31.41;103275.03;5095083;28;20440;-73
2022/03/22 09:09:24;;;;;;;35.90;22.80;;;;;;;15.13;31.21;103282.47;5101058;28;20035;-74
2022/03/22 09:11:50;;;;;;;40.42;24.88;;;;;;;15.42;30.97;103276.06;5101939;28;20078;-74
2022/03/22 09:14:16;;;;;;;43.42;25.05;;;;;;;15.51;31.28;103280.94;5100746;28;20062;-74
2022/03/22 09:16:41;;;;;;;36.65;24.98;;;;;;;15.77;31.23;103283.19;5101181;28;20035;-74
2022/03/22 09:19:07;;;;;;;35.65;24.23;;;;;;;15.80;30.90;103279.09;5101337;28;20028;-75
2022/03/22 09:21:32;;;;;;;40.65;25.05;;;;;;;16.00;30.72;103284.22;5099858;28;20432;-72
2022/03/22 09:23:58;;;;;;;40.90;25.65;;;;;;;16.03;30.62;103281.84;5102248;28;20036;-73
2022/03/22 09:26:24;;;;;;;38.47;24.80;;;;;;;16.24;30.88;103277.59;5087084;28;20086;-74
2022/03/22 09:28:52;;;;;;;39.85;25.35;;;;;;;16.03;30.40;103279.13;5070563;28;20052;-74
2022/03/22 09:31:20;;;;;;;37.88;24.48;;;;;;;15.34;31.11;103268.22;5070388;28;20082;-73
2022/03/22 09:33:45;;;;;;;39.53;23.80;;;;;;;16.09;30.09;103278.16;5070514;28;20032;-74
2022/03/22 09:36:11;;;;;;;36.88;24.42;;;;;;;15.30;31.41;103276.06;5070491;28;20507;-73
2022/03/22 09:38:37;;;;;;;35.50;24.23;;;;;;;16.10;30.74;103279.78;5054750;28;20127;-74
2022/03/22 09:41:05;;;;;;;33.25;23.13;;;;;;;15.85;31.58;103273.78;5079745;28;20035;-73
2022/03/22 09:43:33;;;;;;;33.47;24.60;;;;;;;16.76;29.83;103286.56;5090302;28;20067;-73
2022/03/22 09:46:02;;;;;;;41.67;23.98;;;;;;;16.22;30.78;103274.28;5090590;28;20077;-73
2022/03/22 09:48:31;;;;;;;37.75;22.60;;;;;;;16.80;30.38;103274.03;5073038;28;20033;-74
2022/03/22 09:53:41;;;;;;;36.58;24.58;;;;;;;16.95;29.37;103272.38;5070644;28;20611;-73
2022/03/22 09:56:07;;;;;;;41.25;24.02;;;;;;;17.02;29.13;103281.28;5070034;28;20024;-74
2022/03/22 09:58:33;;;;;;;36.10;24.30;;;;;;;16.62;29.26;103275.09;5069946;28;20032;-73
2022/03/22 10:00:59;;;;;;;39.78;24.80;;;;;;;17.58;28.93;103271.19;5069803;28;20518;-74
2022/03/22 10:03:24;;;;;;;32.30;21.85;;;;;;;17.68;28.76;103277.66;5069994;28;20036;-73
2022/03/22 10:06:19;;;;;;;33.53;22.50;;;;;;;17.55;28.25;103269.78;5070166;28;20032;-75
2022/03/22 10:08:51;;;;;;;34.45;23.65;;;;;;;17.33;29.71;103282.63;5068825;28;20102;-75
2022/03/22 10:11:17;;;;;;;34.25;21.83;;;;;;;17.89;28.82;103273.25;5070715;28;20029;-74
2022/03/22 10:13:50;;;;;;;33.53;23.02;;;;;;;18.11;28.39;103266.72;5069754;28;20028;-73
2022/03/22 10:16:15;;;;;;;40.55;23.77;;;;;;;17.97;28.80;103272.81;5051504;28;20120;-72
2022/03/22 10:18:41;;;;;;;33.70;23.55;;;;;;;17.35;29.40;103270.31;5076214;28;20111;-73
2022/03/22 10:21:07;;;;;;;35.28;23.65;;;;;;;18.63;27.72;103272.47;5082134;28;20032;-74
2022/03/22 10:23:33;;;;;;;31.60;22.20;;;;;;;17.75;28.13;103272.81;5091150;28;20469;-74
2022/03/22 10:26:05;;;;;;;37.22;23.48;;;;;;;17.77;28.83;103270.63;5096650;28;20098;-73
2022/03/22 10:28:32;;;;;;;41.30;23.50;;;;;;;18.46;27.83;103266.25;5089917;28;20127;-73
2022/03/22 10:30:58;;;;;;;36.65;21.83;;;;;;;18.90;27.23;103256.81;5088374;28;20040;-73
2022/03/22 10:33:23;;;;;;;35.60;22.23;;;;;;;18.61;28.08;103260.91;5089847;28;20512;-72
2022/03/22 10:35:49;;;;;;;35.95;23.70;;;;;;;18.69;27.74;103256.84;5083649;28;20171;-76
2022/03/22 10:38:18;;;;;;;33.92;23.05;;;;;;;19.09;27.01;103254.47;5097125;28;20019;-73
2022/03/22 10:40:47;;;;;;;34.70;21.15;;;;;;;18.84;27.03;103248.78;5101143;28;20059;-74
2022/03/22 10:43:19;;;;;;;40.55;23.25;;;;;;;17.95;27.68;103256.59;5097569;28;20027;-73
2022/03/22 10:45:52;;;;;;;33.08;22.17;;;;;;;18.49;27.84;103253.94;5100499;28;20032;-73
2022/03/22 10:48:26;;;;;;;35.28;20.40;;;;;;;19.34;25.82;103251.91;5100200;28;20036;-74
2022/03/22 10:50:53;;;;;;;40.38;21.63;;;;;;;19.40;25.66;103244.53;5102855;28;20051;-74
2022/03/22 10:53:21;;;;;;;33.67;21.67;;;;;;;19.37;25.85;103245.88;5097138;28;20503;-73
2022/03/22 10:55:47;;;;;;;36.40;21.48;;;;;;;19.76;25.73;103252.72;5095005;28;20036;-74
2022/03/22 10:58:15;;;;;;;31.77;19.67;;;;;;;19.89;25.87;103246.72;5094108;28;20030;-74
2022/03/22 11:00:45;;;;;;;32.90;20.38;;;;;;;20.06;24.99;103246.53;5074644;28;20032;-75
2022/03/22 11:03:12;;;;;;;31.88;21.73;;;;;;;20.04;24.81;103248.72;5083736;28;20481;-74
2022/03/22 11:05:40;;;;;;;34.80;19.52;;;;;;;19.80;25.39;103245.59;5095684;28;20038;-75
2022/03/22 11:08:06;;;;;;;33.08;21.63;;;;;;;19.88;25.71;103245.06;5100786;28;20383;-75
2022/03/22 11:10:32;;;;;;;34.92;18.75;;;;;;;19.73;25.28;103245.00;5114194;28;20043;-74
2022/03/22 11:12:58;;;;;;;32.15;20.15;;;;;;;20.14;24.40;103239.69;5114342;28;20051;-73
2022/03/22 11:15:26;;;;;;;28.98;19.25;;;;;;;19.59;25.11;103238.31;5113212;28;20114;-72
2022/03/22 11:17:53;;;;;;;35.83;21.42;;;;;;;19.92;25.17;103248.94;5114374;28;20019;-74
2022/03/22 11:20:18;;;;;;;34.25;20.60;;;;;;;20.00;24.62;103242.88;5114551;28;20526;-74
2022/03/22 11:22:54;;;;;;;34.97;19.20;;;;;;;20.14;24.69;103236.91;5113738;28;20031;-74
2022/03/22 11:25:35;;;;;;;31.27;19.35;;;;;;;20.53;23.83;103236.19;5113863;28;20052;-74
2022/03/22 11:28:08;;;;;;;;;;;;;;;20.56;24.24;103234.78;5080973;28;20040;-73
2022/03/22 11:30:36;;;;;;;33.00;19.77;;;;;;;19.80;25.25;103228.22;5092657;28;19966;-73
2022/03/22 11:35:53;;;;;;;36.88;20.33;;;;;;;20.98;24.15;103220.75;5086636;28;20039;-74
2022/03/22 11:38:56;;;;;;;32.03;20.90;;;;;;;20.48;24.36;103227.88;5094238;28;20024;-73